Time;durP1;ratioP1;P1;durP2;ratioP2;P2;SDS_P1;SDS_P2;PMS_P1;PMS_P2;Temp;Humidity;BMP_temperature;BMP_pressure;BME280_temperature;BME280_humidity;BME280_pressure;Samples;Min_cycle;Max_cycle;Signal;HPM_P1;HPM_P2
2022/01/22 00:01:36;;;;;;;1.23;0.90;;;22.40;55.50;;;;;;4981497;28;21010;-87
2022/01/22 00:04:50;;;;;;;1.30;0.80;;;22.30;55.40;;;;;;4962328;28;20544;-87
2022/01/22 00:17:44;;;;;;;;;;;;;;;;;;;;;
2022/01/22 00:27:32;;;;;;;1.20;0.70;;;22.30;55.50;;;;;;4965244;28;20421;-87
2022/01/22 00:30:54;;;;;;;;;;;;;;;;;;;;;
2022/01/22 00:34:01;;;;;;;;;;;;;;;;;;;;;
2022/01/22 00:43:34;;;;;;;1.00;0.80;;;22.30;55.50;;;;;;4905263;29;20571;-87
2022/01/22 00:49:38;;;;;;;0.90;0.70;;;22.30;55.50;;;;;;4934143;29;20506;-85
2022/01/22 00:55:51;;;;;;;0.90;0.73;;;22.30;55.50;;;;;;4956563;29;20414;-85
2022/01/22 00:58:43;;;;;;;1.30;1.10;;;22.30;55.50;;;;;;4962475;29;20418;-86
2022/01/22 01:04:58;;;;;;;1.47;0.80;;;22.30;55.40;;;;;;4963941;29;20465;-86
2022/01/22 01:07:44;;;;;;;1.10;0.80;;;22.30;55.50;;;;;;5002341;28;20407;-85
2022/01/22 01:10:51;;;;;;;1.00;0.77;;;22.30;55.50;;;;;;5022528;28;20395;-86
2022/01/22 03:11:06;;;;;;;1.00;0.70;;;22.10;55.50;;;;;;4817120;29;20485;-85
2022/01/22 06:47:34;;;;;;;;;;;;;;;;;;;;;
2022/01/22 08:06:10;;;;;;;1.00;0.70;;;22.00;55.40;;;;;;4850047;29;20555;-86
2022/01/22 08:16:09;;;;;;;0.90;0.70;;;22.00;55.40;;;;;;4836994;29;21008;-86
2022/01/22 08:29:07;;;;;;;1.27;0.80;;;22.00;55.40;;;;;;4852300;29;20881;-86
2022/01/22 08:40:45;;;;;;;1.47;0.90;;;22.00;55.30;;;;;;4855895;29;20930;-84
2022/01/22 08:43:11;;;;;;;1.30;0.87;;;22.00;55.30;;;;;;4875830;29;20465;-85
2022/01/22 08:45:37;;;;;;;1.00;0.77;;;22.00;55.30;;;;;;4917734;29;20436;-85
2022/01/22 08:48:06;;;;;;;1.30;0.90;;;22.00;55.20;;;;;;4916964;29;20456;-85
2022/01/22 08:50:34;;;;;;;2.03;0.90;;;22.10;55.30;;;;;;4956269;29;20193;-85
2022/01/22 08:53:00;;;;;;;1.40;0.70;;;22.10;55.30;;;;;;4956159;29;20441;-85
2022/01/22 08:55:26;;;;;;;1.00;0.80;;;22.10;55.30;;;;;;4955962;29;20486;-85
2022/01/22 08:57:52;;;;;;;1.00;0.70;;;22.10;55.20;;;;;;4972613;29;20426;-84
2022/01/22 09:00:19;;;;;;;1.23;0.80;;;22.10;55.30;;;;;;4988328;28;20179;-84
2022/01/22 09:02:46;;;;;;;1.20;0.87;;;22.10;55.20;;;;;;5027408;28;20184;-85
2022/01/22 09:05:16;;;;;;;2.30;1.60;;;22.10;55.20;;;;;;5030532;28;20398;-86
2022/01/22 09:07:43;;;;;;;1.10;0.90;;;22.10;55.20;;;;;;5068747;28;20405;-86
2022/01/22 09:10:09;;;;;;;1.10;0.87;;;22.10;55.20;;;;;;5091866;28;20444;-85
2022/01/22 09:12:35;;;;;;;1.10;0.80;;;22.10;55.20;;;;;;5075121;28;20417;-85
2022/01/22 09:15:01;;;;;;;1.30;0.90;;;22.10;55.10;;;;;;5058335;28;20443;-85
2022/01/22 09:17:28;;;;;;;1.10;0.90;;;22.10;55.10;;;;;;5093057;28;20174;-86
2022/01/22 09:20:01;;;;;;;1.20;0.83;;;22.10;55.10;;;;;;5073633;28;20408;-86
2022/01/22 09:22:27;;;;;;;1.27;0.80;;;22.10;55.10;;;;;;5091798;28;20396;-86
2022/01/22 09:24:53;;;;;;;1.87;0.97;;;22.10;55.10;;;;;;5073585;28;20456;-86
2022/01/22 09:27:20;;;;;;;1.00;0.80;;;22.10;55.10;;;;;;5091779;28;20226;-86
2022/01/22 09:29:52;;;;;;;0.90;0.77;;;22.10;55.10;;;;;;5076547;28;20440;-83
2022/01/22 09:32:19;;;;;;;3.00;1.00;;;22.10;55.10;;;;;;5077565;28;20449;-82
2022/01/22 09:35:06;;;;;;;1.40;0.80;;;22.10;55.10;;;;;;5078382;28;20914;-81
2022/01/22 09:37:38;;;;;;;1.37;0.73;;;22.10;55.10;;;;;;5078203;28;20408;-82
2022/01/22 09:40:05;;;;;;;2.03;0.90;;;22.10;55.00;;;;;;5095400;28;20409;-82
2022/01/22 09:42:32;;;;;;;3.83;0.80;;;22.10;55.00;;;;;;5076142;28;20433;-82
2022/01/22 09:44:59;;;;;;;1.37;1.27;;;22.10;55.00;;;;;;5095105;28;20449;-85
2022/01/22 09:47:26;;;;;;;0.90;0.70;;;22.10;55.00;;;;;;5092122;28;20404;-88
2022/01/22 09:49:56;;;;;;;1.23;0.80;;;22.10;55.00;;;;;;5096015;28;20408;-82
2022/01/22 09:52:27;;;;;;;1.13;0.80;;;22.10;55.00;;;;;;5078483;28;20446;-81
2022/01/22 09:55:19;;;;;;;1.10;0.80;;;22.10;55.00;;;;;;5096121;28;20397;-82
2022/01/22 09:57:47;;;;;;;1.07;0.97;;;22.10;55.00;;;;;;5095634;28;20460;-82
2022/01/22 10:00:18;;;;;;;1.20;0.90;;;22.10;55.00;;;;;;5061867;28;20421;-81
2022/01/22 10:03:17;;;;;;;0.90;0.70;;;22.10;55.00;;;;;;5080112;28;20456;-81
2022/01/22 10:05:44;;;;;;;1.10;0.80;;;22.10;55.00;;;;;;5078040;28;20440;-82
2022/01/22 10:08:38;;;;;;;1.27;0.90;;;22.10;55.00;;;;;;5060958;28;20504;-81
2022/01/22 10:11:25;;;;;;;1.10;0.77;;;22.10;55.00;;;;;;5095565;28;20416;-81
2022/01/22 10:13:59;;;;;;;0.90;0.80;;;22.10;55.00;;;;;;5076859;28;20442;-84
2022/01/22 10:16:34;;;;;;;0.90;0.73;;;22.10;55.00;;;;;;5072734;28;20409;-88
2022/01/22 10:19:24;;;;;;;1.10;0.77;;;22.10;55.00;;;;;;5074236;28;20466;-86
2022/01/22 10:22:00;;;;;;;0.90;0.70;;;22.10;55.00;;;;;;5060795;28;20428;-85
2022/01/22 10:24:39;;;;;;;1.00;0.90;;;22.10;55.00;;;;;;5077007;28;20455;-83
2022/01/22 10:27:45;;;;;;;1.10;0.80;;;22.10;55.00;;;;;;5080712;28;20400;-82
2022/01/22 10:30:16;;;;;;;0.80;0.60;;;22.10;55.00;;;;;;5079846;28;20396;-82
2022/01/22 10:32:49;;;;;;;0.93;0.67;;;22.10;55.00;;;;;;5063509;28;20433;-82
2022/01/22 10:35:22;;;;;;;1.20;0.70;;;22.10;55.00;;;;;;5079350;28;20408;-83
2022/01/22 10:38:10;;;;;;;1.17;0.73;;;22.10;55.10;;;;;;5079020;28;20440;-84
2022/01/22 10:40:42;;;;;;;1.10;0.60;;;22.10;55.00;;;;;;5080984;28;20412;-84
2022/01/22 10:43:17;;;;;;;0.90;0.73;;;22.10;55.00;;;;;;5078388;28;20428;-83
2022/01/22 10:46:07;;;;;;;0.80;0.60;;;22.10;55.00;;;;;;5097479;28;20442;-84
2022/01/22 10:48:38;;;;;;;1.67;0.80;;;22.10;55.00;;;;;;5079970;28;20408;-83
2022/01/22 10:51:20;;;;;;;1.17;0.70;;;22.10;55.00;;;;;;5063886;28;20417;-83
2022/01/22 10:53:52;;;;;;;0.80;0.63;;;22.10;55.00;;;;;;5098085;28;20427;-84
2022/01/22 10:56:24;;;;;;;1.50;0.73;;;22.10;55.00;;;;;;5080223;28;20420;-84
2022/01/22 10:59:17;;;;;;;0.90;0.70;;;22.10;55.00;;;;;;5098104;28;20503;-83
2022/01/22 11:01:54;;;;;;;0.90;0.70;;;22.10;55.00;;;;;;4984300;28;20423;-84
2022/01/22 11:05:05;;;;;;;1.00;0.80;;;22.10;55.00;;;;;;5016553;28;20442;-83
2022/01/22 11:07:37;;;;;;;0.80;0.60;;;22.10;55.00;;;;;;4999281;28;20420;-83
2022/01/22 11:10:07;;;;;;;0.83;0.70;;;22.10;55.00;;;;;;5016451;28;20419;-82
2022/01/22 11:12:34;;;;;;;1.63;0.70;;;22.10;55.00;;;;;;5013167;28;20436;-84
2022/01/22 11:15:02;;;;;;;1.57;0.80;;;22.10;55.00;;;;;;5015854;28;20914;-82
2022/01/22 11:17:32;;;;;;;0.90;0.80;;;22.10;55.00;;;;;;5016011;28;20416;-83
2022/01/22 11:20:05;;;;;;;1.40;0.77;;;22.10;55.00;;;;;;5014328;28;20423;-87
2022/01/22 11:22:35;;;;;;;1.00;0.70;;;22.10;55.00;;;;;;5011889;28;20577;-86
2022/01/22 11:25:01;;;;;;;0.80;0.60;;;22.20;55.00;;;;;;5011972;28;20456;-85
2022/01/22 11:27:29;;;;;;;1.00;0.90;;;22.10;55.00;;;;;;5016265;28;20408;-83
2022/01/22 11:30:11;;;;;;;0.90;0.60;;;22.10;55.00;;;;;;5015873;28;20806;-84
2022/01/22 11:32:56;;;;;;;1.00;0.70;;;22.20;55.00;;;;;;5015919;28;20408;-82
2022/01/22 11:35:41;;;;;;;1.10;0.73;;;22.10;54.90;;;;;;4999663;28;20469;-83
2022/01/22 11:38:12;;;;;;;0.90;0.70;;;22.10;54.90;;;;;;5021985;28;20425;-81
2022/01/22 11:40:38;;;;;;;0.90;0.70;;;22.10;55.00;;;;;;5078988;28;20403;-84
2022/01/22 11:43:21;;;;;;;1.20;0.70;;;22.20;55.00;;;;;;5079401;28;20474;-83
2022/01/22 11:45:54;;;;;;;0.80;0.60;;;22.10;55.00;;;;;;5112849;28;20479;-81
2022/01/22 11:48:33;;;;;;;1.00;0.60;;;22.10;54.90;;;;;;5094786;28;20397;-88
2022/01/22 11:51:21;;;;;;;1.00;0.70;;;22.10;55.00;;;;;;5105454;28;20393;-88
2022/01/22 11:53:56;;;;;;;0.87;0.60;;;22.10;55.00;;;;;;5090037;28;20411;-89
2022/01/22 11:56:26;;;;;;;2.50;0.70;;;22.10;55.00;;;;;;5071609;28;20414;-90
2022/01/22 11:58:59;;;;;;;0.80;0.60;;;22.10;55.00;;;;;;5071959;28;20397;-89
2022/01/22 12:01:50;;;;;;;1.03;0.80;;;22.10;55.00;;;;;;5089826;28;20407;-89
2022/01/22 12:04:20;;;;;;;2.50;0.87;;;22.10;54.90;;;;;;5089307;28;20517;-89
2022/01/22 12:07:01;;;;;;;0.90;0.70;;;22.10;55.00;;;;;;5071700;28;20515;-89
2022/01/22 12:09:41;;;;;;;1.00;0.63;;;22.20;55.00;;;;;;5071175;28;20512;-89
2022/01/22 12:15:16;;;;;;;0.80;0.60;;;22.10;54.90;;;;;;5089872;28;20400;-89
2022/01/22 12:23:55;;;;;;;1.00;0.70;;;22.10;54.90;;;;;;5090562;28;20498;-89
2022/01/22 12:26:44;;;;;;;0.90;0.70;;;22.10;54.90;;;;;;5007993;28;20420;-89
2022/01/22 12:29:32;;;;;;;0.80;0.63;;;22.10;55.00;;;;;;5010119;28;20404;-89
2022/01/22 12:32:08;;;;;;;0.90;0.67;;;22.10;55.00;;;;;;5008371;28;20423;-89
2022/01/22 12:34:55;;;;;;;1.37;0.67;;;22.10;55.00;;;;;;5010186;28;20451;-84
2022/01/22 12:37:22;;;;;;;1.00;0.80;;;22.10;55.00;;;;;;5015036;28;20464;-84
2022/01/22 12:39:52;;;;;;;1.00;0.90;;;22.10;55.00;;;;;;5013365;28;20424;-84
2022/01/22 12:42:46;;;;;;;0.90;0.70;;;22.10;55.00;;;;;;5013592;28;20385;-84
2022/01/22 12:45:14;;;;;;;0.90;0.60;;;22.10;54.90;;;;;;5013978;28;20425;-84
2022/01/22 12:47:45;;;;;;;1.17;0.77;;;22.10;55.00;;;;;;5012819;28;20515;-84
2022/01/22 12:50:11;;;;;;;1.17;0.60;;;22.10;54.90;;;;;;5013344;28;20416;-84
2022/01/22 12:52:40;;;;;;;0.80;0.60;;;22.10;54.90;;;;;;4996731;28;20427;-84
2022/01/22 12:56:00;;;;;;;0.87;0.70;;;22.10;54.90;;;;;;5013255;28;20177;-84
2022/01/22 12:58:33;;;;;;;1.40;0.70;;;22.10;54.90;;;;;;5090952;28;20413;-83
2022/01/22 13:01:22;;;;;;;1.00;0.70;;;22.10;54.90;;;;;;5094325;28;20422;-88
2022/01/22 13:03:53;;;;;;;1.00;0.70;;;22.10;54.90;;;;;;5073073;28;20512;-88
2022/01/22 13:06:26;;;;;;;0.90;0.70;;;22.10;54.90;;;;;;5076824;28;20409;-84
2022/01/22 13:08:59;;;;;;;1.00;0.77;;;22.10;54.90;;;;;;5077226;28;20407;-84
2022/01/22 13:11:33;;;;;;;0.90;0.67;;;22.10;54.90;;;;;;5095190;28;20385;-84
2022/01/22 13:14:00;;;;;;;2.60;0.70;;;22.10;54.90;;;;;;5095083;28;20420;-84
2022/01/22 13:16:29;;;;;;;1.03;0.70;;;22.10;54.90;;;;;;5094605;28;20417;-83
2022/01/22 13:19:00;;;;;;;0.90;0.60;;;22.10;54.90;;;;;;5078136;28;20392;-84
2022/01/22 13:24:48;;;;;;;1.80;0.80;;;22.10;54.90;;;;;;5089384;28;21001;-90
2022/01/22 13:27:17;;;;;;;0.80;0.60;;;22.10;54.90;;;;;;5071426;28;20439;-89
2022/01/22 13:29:53;;;;;;;0.80;0.60;;;22.10;54.90;;;;;;5088541;28;20408;-89
2022/01/22 13:48:27;;;;;;;1.50;0.60;;;22.10;54.90;;;;;;5089025;28;20480;-88
2022/01/22 13:50:53;;;;;;;0.80;0.60;;;22.10;54.90;;;;;;5070548;28;20421;-88
2022/01/22 13:53:21;;;;;;;0.87;0.70;;;22.10;54.90;;;;;;5105391;28;20426;-88
2022/01/22 13:56:15;;;;;;;0.90;0.70;;;22.20;54.90;;;;;;5073135;28;20461;-87
2022/01/22 13:58:42;;;;;;;1.00;0.70;;;22.20;54.90;;;;;;5090607;28;20481;-87
2022/01/22 14:01:40;;;;;;;1.00;0.70;;;22.10;54.80;;;;;;5075584;28;20526;-87
2022/01/22 14:04:13;;;;;;;1.13;0.87;;;22.10;54.80;;;;;;5093799;28;20959;-86
2022/01/22 14:06:41;;;;;;;1.20;0.80;;;22.10;54.90;;;;;;5074731;28;20408;-88
2022/01/22 14:09:17;;;;;;;1.30;0.70;;;22.10;54.90;;;;;;5092822;28;20487;-86
2022/01/22 14:12:12;;;;;;;1.73;1.43;;;22.10;54.90;;;;;;5074692;28;20408;-87
2022/01/22 14:15:00;;;;;;;1.87;1.10;;;22.20;54.90;;;;;;5075055;28;20491;-87
2022/01/22 14:17:36;;;;;;;2.80;1.00;;;22.20;55.00;;;;;;5095064;28;20409;-86
2022/01/22 14:20:09;;;;;;;2.80;1.13;;;22.20;55.00;;;;;;5094821;28;20458;-86
2022/01/22 14:22:53;;;;;;;1.83;1.10;;;22.20;55.10;;;;;;5074005;28;20412;-87
2022/01/22 14:25:19;;;;;;;2.43;1.20;;;22.20;55.10;;;;;;5074943;28;20495;-87
2022/01/22 14:28:02;;;;;;;4.73;1.30;;;22.20;55.10;;;;;;5075355;28;20416;-87
2022/01/22 14:30:37;;;;;;;1.33;1.10;;;22.20;55.10;;;;;;5075011;28;20427;-87
2022/01/22 14:33:04;;;;;;;2.33;1.10;;;22.20;55.10;;;;;;5074664;28;20419;-87
2022/01/22 14:35:31;;;;;;;2.63;1.40;;;22.20;55.10;;;;;;5093209;28;20412;-88
2022/01/22 14:38:19;;;;;;;1.80;1.50;;;22.20;55.10;;;;;;5092813;28;20416;-88
2022/01/22 14:44:03;;;;;;;1.30;1.07;;;22.20;55.10;;;;;;5093275;28;20455;-87
2022/01/22 14:47:19;;;;;;;3.47;1.30;;;22.20;55.20;;;;;;5074791;28;20413;-87
2022/01/22 14:49:49;;;;;;;4.23;1.60;;;22.20;55.20;;;;;;5010783;28;20420;-87
2022/01/22 14:52:20;;;;;;;1.50;1.27;;;22.20;55.20;;;;;;5010440;28;20423;-87
2022/01/22 14:54:50;;;;;;;1.53;1.03;;;22.20;55.20;;;;;;5010762;28;20431;-87
2022/01/22 14:57:20;;;;;;;2.27;1.47;;;22.20;55.30;;;;;;5011283;28;20416;-87
2022/01/22 14:59:47;;;;;;;2.37;1.40;;;22.20;55.20;;;;;;5010359;28;20404;-87
2022/01/22 15:02:16;;;;;;;3.50;3.30;;;22.20;55.20;;;;;;5010604;28;20488;-87
2022/01/22 15:05:00;;;;;;;1.50;1.20;;;22.20;55.20;;;;;;5010567;28;20470;-87
2022/01/22 15:07:30;;;;;;;1.77;1.67;;;22.20;55.20;;;;;;5010248;28;20931;-87
2022/01/22 15:10:28;;;;;;;2.50;1.10;;;22.20;55.20;;;;;;5010566;28;20447;-87
2022/01/22 15:12:54;;;;;;;1.60;1.20;;;22.20;55.20;;;;;;4993690;28;20420;-87
2022/01/22 15:15:22;;;;;;;1.93;1.17;;;22.20;55.20;;;;;;5010428;28;20871;-88
2022/01/22 15:18:06;;;;;;;2.07;1.10;;;22.20;55.20;;;;;;4994156;28;20185;-84
2022/01/22 15:20:33;;;;;;;1.87;1.20;;;22.20;55.20;;;;;;5014105;28;20517;-86
2022/01/22 15:23:02;;;;;;;2.47;1.60;;;22.20;55.10;;;;;;5032792;28;20458;-87
2022/01/22 15:25:28;;;;;;;1.17;1.03;;;22.30;55.20;;;;;;5078246;28;20950;-86
2022/01/22 15:27:55;;;;;;;1.53;1.00;;;22.30;55.50;;;;;;5077091;28;20452;-86
2022/01/22 15:30:33;;;;;;;2.20;1.27;;;22.30;55.30;;;;;;5095722;28;20185;-86
2022/01/22 15:35:38;;;;;;;3.80;1.40;;;22.30;55.30;;;;;;5095576;28;20419;-86
2022/01/22 15:38:04;;;;;;;3.13;1.17;;;22.30;55.30;;;;;;5060851;28;20474;-87
2022/01/22 15:40:33;;;;;;;2.57;1.33;;;22.30;55.20;;;;;;5076226;28;20417;-86
2022/01/22 15:43:00;;;;;;;1.60;1.20;;;22.30;55.30;;;;;;5075821;28;20174;-86
2022/01/22 15:45:37;;;;;;;1.53;1.17;;;22.30;55.30;;;;;;5108928;28;20499;-82
2022/01/22 15:48:06;;;;;;;1.57;1.30;;;22.30;55.20;;;;;;5095644;28;20389;-83
2022/01/22 15:50:32;;;;;;;1.43;1.10;;;22.30;55.20;;;;;;5074758;28;20420;-84
2022/01/22 15:53:12;;;;;;;2.80;1.13;;;22.30;55.20;;;;;;5096471;28;20429;-83
2022/01/22 15:55:39;;;;;;;1.20;1.10;;;22.30;55.30;;;;;;5064940;28;20850;-83
2022/01/22 15:58:07;;;;;;;1.47;1.37;;;22.20;55.20;;;;;;5097178;28;20472;-82
2022/01/22 16:00:42;;;;;;;1.73;1.00;;;22.30;55.50;;;;;;5097650;28;20460;-81
2022/01/22 16:03:18;;;;;;;1.80;1.03;;;22.30;55.30;;;;;;5093772;28;20953;-81
2022/01/22 16:05:50;;;;;;;1.63;1.20;;;22.30;55.30;;;;;;5079853;28;20424;-82
2022/01/22 16:08:16;;;;;;;1.77;1.20;;;22.20;55.20;;;;;;5079313;28;20417;-82
2022/01/22 16:10:48;;;;;;;1.80;1.27;;;22.30;55.30;;;;;;5078323;28;20500;-85
2022/01/22 16:13:35;;;;;;;1.80;1.20;;;22.30;55.30;;;;;;5096388;28;20484;-83
2022/01/22 16:16:08;;;;;;;1.60;1.10;;;22.30;55.30;;;;;;5095938;28;20405;-83
2022/01/22 16:18:36;;;;;;;1.00;0.90;;;22.30;55.30;;;;;;5095100;28;20420;-83
2022/01/22 16:21:05;;;;;;;1.50;0.97;;;22.30;55.30;;;;;;5096491;28;20389;-83
2022/01/22 16:23:39;;;;;;;1.30;1.00;;;22.30;55.30;;;;;;5089417;28;20460;-82
2022/01/22 16:26:11;;;;;;;1.97;1.10;;;22.30;55.30;;;;;;5062983;28;20432;-85
2022/01/22 16:29:00;;;;;;;1.80;1.20;;;22.30;55.30;;;;;;5062290;28;20408;-81
2022/01/22 16:31:30;;;;;;;2.43;0.90;;;22.30;55.30;;;;;;5096372;28;20407;-83
2022/01/22 16:33:59;;;;;;;1.50;1.00;;;22.30;55.40;;;;;;5078224;28;20909;-82
2022/01/22 16:39:23;;;;;;;1.90;1.10;;;22.30;55.40;;;;;;5096310;28;20389;-80
2022/01/22 16:42:03;;;;;;;3.30;1.00;;;22.30;55.40;;;;;;5079472;28;20424;-81
2022/01/22 16:44:47;;;;;;;1.93;0.90;;;22.30;55.40;;;;;;5096128;28;20428;-81
2022/01/22 16:51:20;;;;;;;1.53;1.20;;;22.30;55.50;;;;;;5095576;28;20446;-81
2022/01/22 16:56:52;;;;;;;2.60;1.27;;;22.20;55.50;;;;;;5094364;28;20496;-80
2022/01/22 16:59:26;;;;;;;1.40;1.17;;;22.30;55.50;;;;;;5078063;28;20428;-81
2022/01/22 17:01:58;;;;;;;1.47;1.27;;;22.30;55.50;;;;;;5061706;28;20989;-80
2022/01/22 17:04:34;;;;;;;1.63;1.50;;;22.30;55.50;;;;;;5077594;28;20555;-82
2022/01/22 17:07:03;;;;;;;1.10;1.00;;;22.30;55.50;;;;;;5077432;28;20385;-80
2022/01/22 17:18:16;;;;;;;1.10;0.90;;;22.30;55.40;;;;;;5093620;28;20380;-82
2022/01/22 17:20:49;;;;;;;1.27;1.00;;;22.30;55.50;;;;;;5078544;28;20919;-81
2022/01/22 17:23:15;;;;;;;2.10;1.20;;;22.30;55.50;;;;;;5074862;28;20449;-82
2022/01/22 17:25:45;;;;;;;1.63;1.00;;;22.30;55.50;;;;;;5065209;28;20514;-81
2022/01/22 17:28:18;;;;;;;1.50;1.40;;;22.30;55.50;;;;;;5095076;28;20467;-81
2022/01/22 17:31:09;;;;;;;1.40;1.20;;;22.30;55.50;;;;;;5080456;28;20409;-81
2022/01/22 17:33:49;;;;;;;4.33;1.00;;;22.30;55.50;;;;;;5117280;28;20419;-81
2022/01/22 17:36:24;;;;;;;1.40;0.90;;;22.30;55.50;;;;;;5085363;28;20411;-82
2022/01/22 17:42:17;;;;;;;1.50;0.93;;;22.30;55.60;;;;;;5117187;28;20480;-81
2022/01/22 17:44:49;;;;;;;1.67;1.20;;;22.30;55.60;;;;;;5102838;28;20455;-81
2022/01/22 17:47:28;;;;;;;1.67;0.87;;;22.30;55.70;;;;;;5102193;28;20415;-81
2022/01/22 17:49:58;;;;;;;2.23;1.20;;;22.30;55.60;;;;;;5101664;28;20400;-81
2022/01/22 17:52:24;;;;;;;1.90;1.20;;;22.30;55.60;;;;;;5102037;28;20403;-81
2022/01/22 17:54:57;;;;;;;1.83;1.10;;;22.30;55.60;;;;;;5119708;28;20443;-81
2022/01/22 17:57:27;;;;;;;1.40;0.90;;;22.30;55.60;;;;;;5084121;28;20503;-81
2022/01/22 18:00:02;;;;;;;1.73;0.90;;;22.30;55.60;;;;;;5069005;28;20415;-81
2022/01/22 18:02:30;;;;;;;1.40;1.10;;;22.30;55.60;;;;;;5101976;28;20404;-82
2022/01/22 18:05:04;;;;;;;2.70;1.13;;;22.30;55.60;;;;;;5119576;28;20499;-82
2022/01/22 18:07:39;;;;;;;1.90;0.83;;;22.30;55.50;;;;;;5101533;28;20406;-81
2022/01/22 18:10:09;;;;;;;1.83;1.10;;;22.30;55.50;;;;;;5101729;28;20425;-84
2022/01/22 18:12:44;;;;;;;1.20;0.90;;;22.30;55.50;;;;;;5114445;28;20412;-90
2022/01/22 18:15:10;;;;;;;3.37;1.23;;;22.30;55.50;;;;;;5096169;28;20434;-86
2022/01/22 18:17:36;;;;;;;1.20;0.80;;;22.30;55.50;;;;;;5096609;28;20442;-86
2022/01/22 18:20:03;;;;;;;1.47;0.90;;;22.30;55.50;;;;;;5114713;28;20174;-86
2022/01/22 18:22:28;;;;;;;1.00;0.83;;;22.30;55.60;;;;;;5115891;28;20419;-84
2022/01/22 18:24:56;;;;;;;2.90;1.10;;;22.30;55.50;;;;;;5098654;28;20451;-86
2022/01/22 18:27:24;;;;;;;1.73;1.17;;;22.30;55.50;;;;;;5079156;28;20925;-85
2022/01/22 18:29:59;;;;;;;1.60;0.83;;;22.30;55.50;;;;;;5081578;28;20840;-84
2022/01/22 18:32:25;;;;;;;1.77;1.17;;;22.30;55.50;;;;;;5097066;28;20491;-87
2022/01/22 18:34:53;;;;;;;1.30;0.90;;;22.30;55.50;;;;;;5113387;28;20407;-85
2022/01/22 18:37:19;;;;;;;2.00;1.10;;;22.30;55.50;;;;;;5094397;28;20197;-86
2022/01/22 18:39:45;;;;;;;1.27;0.90;;;22.30;55.50;;;;;;5095791;28;20659;-86
2022/01/22 18:42:12;;;;;;;1.70;1.03;;;22.30;55.50;;;;;;5111911;28;20178;-84
2022/01/22 18:44:38;;;;;;;2.53;1.50;;;22.30;55.50;;;;;;5095598;28;20223;-86
2022/01/22 18:47:04;;;;;;;4.00;0.90;;;22.30;55.50;;;;;;5110968;28;20458;-88
2022/01/22 18:49:31;;;;;;;1.20;0.80;;;22.30;55.70;;;;;;5092287;28;20174;-84
2022/01/22 18:52:02;;;;;;;1.67;1.20;;;22.30;55.60;;;;;;5112583;28;20418;-85
2022/01/22 18:54:28;;;;;;;2.60;1.03;;;22.30;55.60;;;;;;5119527;28;20437;-88
2022/01/22 18:56:54;;;;;;;1.87;1.23;;;22.30;55.60;;;;;;5123438;28;20410;-87
2022/01/22 18:59:23;;;;;;;2.00;1.20;;;22.30;55.60;;;;;;5092887;28;20184;-89
2022/01/22 19:01:49;;;;;;;4.30;1.47;;;22.30;55.60;;;;;;5092868;28;20428;-85
2022/01/22 19:04:20;;;;;;;3.17;1.30;;;22.30;55.60;;;;;;5111199;28;20463;-83
2022/01/22 19:06:46;;;;;;;1.77;1.23;;;22.30;55.60;;;;;;5093759;28;20174;-83
2022/01/22 19:09:20;;;;;;;3.97;1.50;;;22.30;55.60;;;;;;5096154;28;20407;-84
2022/01/22 19:11:47;;;;;;;2.30;1.37;;;22.30;55.70;;;;;;5109859;28;20244;-85
